createdAt,value
2022-11-01T06:05:56.569Z,100848.30
2022-11-01T06:07:00.142Z,100847.13
2022-11-01T06:08:03.784Z,100843.50
2022-11-01T06:09:07.498Z,100847.14
2022-11-01T06:10:11.231Z,100841.98
2022-11-01T06:11:14.821Z,100838.67
2022-11-01T06:12:19.058Z,100837.53
2022-11-01T06:13:22.457Z,100837.95
2022-11-01T06:14:25.692Z,100837.70
2022-11-01T06:15:29.043Z,100842.52
2022-11-01T06:16:32.451Z,100839.98
2022-11-01T06:17:37.368Z,100844.20
2022-11-01T06:18:41.737Z,100843.34
2022-11-01T06:19:45.303Z,100844.44
2022-11-01T06:20:49.596Z,100844.90
2022-11-01T06:21:52.784Z,100852.34
2022-11-01T06:22:57.798Z,100843.30
2022-11-01T06:24:01.152Z,100848.13
2022-11-01T06:25:05.717Z,100842.13
2022-11-01T06:26:09.873Z,100843.77
2022-11-01T06:27:12.863Z,100839.19
2022-11-01T06:28:15.485Z,100841.41
2022-11-01T06:29:18.675Z,100840.86
2022-11-01T06:30:21.566Z,100835.83
2022-11-01T06:31:25.178Z,100839.50
2022-11-01T06:32:28.041Z,100841.10
2022-11-01T06:33:32.676Z,100838.13
2022-11-01T06:34:40.887Z,100849.59
2022-11-01T06:35:40.871Z,100844.17
2022-11-01T06:36:44.256Z,100841.23
2022-11-01T06:37:48.294Z,100846.53
2022-11-01T06:38:52.101Z,100844.52
2022-11-01T06:39:55.513Z,100838.78
2022-11-01T06:40:58.589Z,100849.70
2022-11-01T06:42:02.001Z,100847.05
2022-11-01T06:43:05.451Z,100843.41
2022-11-01T06:44:09.220Z,100848.91
2022-11-01T06:45:15.330Z,100850.55
2022-11-01T06:46:18.848Z,100844.92
2022-11-01T06:47:22.032Z,100846.05
2022-11-01T06:48:27.405Z,100846.91
2022-11-01T06:49:30.901Z,100843.60
2022-11-01T06:50:34.328Z,100850.63
2022-11-01T06:51:37.090Z,100850.09
2022-11-01T06:52:40.485Z,100849.41
2022-11-01T06:53:44.046Z,100854.45
2022-11-01T06:54:48.036Z,100853.71
2022-11-01T06:55:51.249Z,100851.88
2022-11-01T06:56:54.609Z,100853.22
2022-11-01T06:57:59.652Z,100861.80
2022-11-01T06:59:02.675Z,100863.29
2022-11-01T07:00:07.405Z,100870.64
2022-11-01T07:01:09.770Z,100880.26
2022-11-01T07:02:14.825Z,100887.63
2022-11-01T07:03:18.961Z,100894.54
2022-11-01T07:04:23.665Z,100900.02
2022-11-01T07:05:29.368Z,100903.33
2022-11-01T07:06:32.525Z,100901.56
2022-11-01T07:07:34.779Z,100907.16
2022-11-01T07:08:38.178Z,100915.27
2022-11-01T07:09:41.323Z,100911.22
2022-11-01T07:10:45.604Z,100915.02
2022-11-01T07:11:49.957Z,100928.99
2022-11-01T07:13:01.826Z,100925.55
2022-11-01T07:14:05.114Z,100930.50
2022-11-01T07:15:08.827Z,100943.81
2022-11-01T07:16:12.123Z,100938.15
2022-11-01T07:17:15.440Z,100940.97
2022-11-01T07:18:18.924Z,100946.91
2022-11-01T07:19:24.101Z,100957.17
2022-11-01T07:20:28.441Z,100952.77
2022-11-01T07:21:32.252Z,100961.42
2022-11-01T07:22:35.544Z,100955.90
2022-11-01T07:23:38.681Z,100955.41
2022-11-01T07:24:45.264Z,100955.48
2022-11-01T07:25:53.265Z,100961.60
2022-11-01T07:26:56.678Z,100960.61
2022-11-01T07:28:03.480Z,100972.00
2022-11-01T07:29:06.821Z,100963.33
2022-11-01T07:30:12.075Z,100957.45
2022-11-01T07:31:17.382Z,100963.52
2022-11-01T07:32:23.488Z,100962.72
2022-11-01T07:33:26.617Z,100958.91
2022-11-01T07:34:29.568Z,100967.02
2022-11-01T07:35:34.266Z,100966.72
2022-11-01T07:36:37.506Z,100973.77
2022-11-01T07:37:40.634Z,100971.59
2022-11-01T07:38:44.113Z,100974.88
2022-11-01T07:39:47.651Z,100963.35
2022-11-01T07:40:58.125Z,100972.02
2022-11-01T07:42:04.322Z,100965.36
2022-11-01T07:43:07.673Z,100973.08
2022-11-01T07:44:10.921Z,100971.77
2022-11-01T07:45:14.842Z,100964.02
2022-11-01T07:46:19.010Z,100971.61
2022-11-01T07:47:22.594Z,100967.59
2022-11-01T07:48:25.263Z,100965.55
2022-11-01T07:49:28.132Z,100965.00
2022-11-01T07:50:32.484Z,100964.91
2022-11-01T07:51:35.350Z,100968.26
2022-11-01T07:52:38.585Z,100964.16
2022-11-01T07:53:43.418Z,100969.88
2022-11-01T11:38:43.544Z,100805.33
2022-11-01T11:39:49.032Z,100799.55
2022-11-01T11:40:52.856Z,100804.64
2022-11-01T11:42:01.672Z,100803.41
2022-11-01T11:43:24.719Z,100791.50
2022-11-01T11:44:42.535Z,100798.45
2022-11-01T11:45:48.848Z,100794.02
2022-11-01T11:46:58.423Z,100789.03
2022-11-01T11:48:18.732Z,100789.25
2022-11-01T11:49:29.824Z,100791.78
2022-11-01T11:50:33.993Z,100795.40
2022-11-01T11:51:38.869Z,100798.31
2022-11-01T11:52:42.687Z,100788.14
2022-11-01T11:53:48.797Z,100788.66
2022-11-01T11:54:52.515Z,100792.56
2022-11-01T11:55:57.276Z,100781.24
2022-11-01T11:57:19.683Z,100784.28
2022-11-01T11:59:58.135Z,100796.80
2022-11-01T12:01:06.430Z,100797.80
2022-11-01T12:02:20.683Z,100800.02
2022-11-01T12:03:24.414Z,100796.69
2022-11-01T12:04:32.091Z,100794.72
2022-11-01T12:05:34.970Z,100793.08
2022-11-01T12:06:38.997Z,100787.55
2022-11-01T12:07:47.306Z,100796.80
2022-11-01T12:08:52.599Z,100800.55
2022-11-01T12:09:56.111Z,100797.13
2022-11-01T12:10:58.762Z,100793.37
2022-11-01T12:12:08.024Z,100794.02
2022-11-01T12:13:31.888Z,100805.14
2022-11-01T12:14:37.896Z,100794.97
2022-11-01T12:15:41.669Z,100798.50
2022-11-01T12:16:45.334Z,100798.25
2022-11-01T12:17:48.943Z,100796.69
2022-11-01T12:18:55.433Z,100806.11
2022-11-01T12:20:12.449Z,100807.48
2022-11-01T12:21:18.156Z,100802.39
2022-11-01T12:22:21.561Z,100799.91
2022-11-01T12:23:26.616Z,100796.80
2022-11-01T12:24:37.864Z,100792.53
2022-11-01T12:25:43.037Z,100801.95
2022-11-01T12:26:46.648Z,100796.52
2022-11-01T12:27:57.412Z,100799.30
2022-11-01T12:29:08.654Z,100794.27
2022-11-01T12:30:15.231Z,100802.88
2022-11-01T12:31:20.021Z,100797.34
2022-11-01T12:32:29.824Z,100802.39
2022-11-01T12:33:35.149Z,100798.02
2022-11-01T12:59:38.690Z,100795.14
2022-11-01T13:00:49.211Z,100794.39
2022-11-01T13:01:54.503Z,100786.59
2022-11-01T13:03:04.833Z,100798.34
2022-11-01T13:04:14.908Z,100797.84
2022-11-01T13:05:22.905Z,100791.66
2022-11-01T13:06:30.786Z,100803.19
2022-11-01T13:07:49.776Z,100792.72
2022-11-01T13:09:11.858Z,100793.79
2022-11-01T13:10:17.139Z,100795.61
2022-11-01T13:11:28.062Z,100790.73
2022-11-01T13:12:41.311Z,100789.87
2022-11-01T13:13:46.769Z,100783.78
2022-11-01T13:14:52.038Z,100778.48
2022-11-01T13:15:56.940Z,100784.34
2022-11-01T13:17:02.191Z,100776.66
2022-11-01T13:18:22.304Z,100773.25
2022-11-01T13:19:29.048Z,100771.94
2022-11-01T13:20:38.758Z,100770.02
2022-11-01T13:21:47.318Z,100764.78
2022-11-01T13:22:55.332Z,100769.37
2022-11-01T13:24:03.330Z,100761.61
2022-11-01T13:25:14.239Z,100767.91
2022-11-01T13:26:28.716Z,100770.58
2022-11-01T13:27:39.960Z,100768.55
2022-11-01T13:28:58.402Z,100769.95
2022-11-01T13:30:04.815Z,100774.11
2022-11-01T13:31:09.868Z,100770.59
2022-11-01T13:32:15.053Z,100781.05
2022-11-01T13:33:24.438Z,100776.89
2022-11-01T13:34:47.146Z,100773.13
2022-11-01T13:36:12.086Z,100769.50
2022-11-01T13:37:34.616Z,100772.61
2022-11-01T13:38:44.972Z,100775.30
2022-11-01T13:40:01.323Z,100768.77
2022-11-01T13:41:05.403Z,100770.58
2022-11-01T13:42:17.889Z,100764.29
2022-11-01T13:43:23.455Z,100763.54
2022-11-01T13:44:28.944Z,100760.98
2022-11-01T13:45:37.167Z,100760.26
2022-11-01T13:46:47.320Z,100757.70
2022-11-01T13:47:52.936Z,100758.97
2022-11-01T13:49:01.130Z,100755.45
2022-11-01T13:50:21.438Z,100748.41
2022-11-01T13:51:26.300Z,100747.45
2022-11-01T13:52:30.643Z,100749.26
2022-11-01T13:53:41.681Z,100742.97
2022-11-01T13:54:47.378Z,100743.17
2022-11-01T13:55:53.078Z,100742.50
2022-11-01T13:57:03.983Z,100737.16
2022-11-01T13:58:07.421Z,100740.82
2022-11-01T13:59:13.828Z,100737.30
2022-11-01T14:00:36.027Z,100730.36
2022-11-01T14:01:40.140Z,100733.23
2022-11-01T14:02:49.918Z,100733.34
2022-11-01T14:03:55.318Z,100730.88
2022-11-01T14:05:03.200Z,100728.55
2022-11-01T14:06:11.208Z,100723.33
2022-11-01T14:07:16.370Z,100717.34
2022-11-01T14:08:29.707Z,100715.64
2022-11-01T14:09:33.181Z,100710.52
2022-11-01T14:10:38.162Z,100707.95
2022-11-01T14:11:46.592Z,100707.20
2022-11-01T14:13:00.116Z,100712.77
2022-11-01T14:14:06.659Z,100704.77
2022-11-01T14:15:15.499Z,100692.50
2022-11-01T14:16:20.770Z,100704.33
2022-11-01T14:17:26.996Z,100701.22
2022-11-01T14:18:32.047Z,100707.50
2022-11-01T14:19:35.552Z,100709.55
2022-11-01T14:20:43.759Z,100708.80
2022-11-01T14:21:48.411Z,100698.14
2022-11-01T14:22:52.647Z,100693.02
2022-11-01T14:24:07.031Z,100694.92
2022-11-01T14:25:15.262Z,100695.88
2022-11-01T14:26:22.698Z,100705.06
2022-11-01T14:27:31.214Z,100706.22
2022-11-01T14:28:34.837Z,100705.56
2022-11-01T14:29:38.536Z,100701.20
2022-11-01T14:30:42.564Z,100687.76
2022-11-01T14:31:47.199Z,100685.30
2022-11-01T14:32:56.899Z,100685.39
2022-11-01T14:34:03.733Z,100691.77
2022-11-01T14:35:10.788Z,100692.96
2022-11-01T14:36:16.084Z,100688.59
2022-11-01T14:37:23.204Z,100687.93
2022-11-01T14:38:27.793Z,100683.66
2022-11-01T14:39:42.370Z,100688.23
2022-11-01T14:40:52.433Z,100685.56
2022-11-01T14:41:58.768Z,100691.94
2022-11-01T14:43:11.058Z,100683.86
2022-11-01T14:44:29.173Z,100684.81
2022-11-01T14:45:36.033Z,100686.62
2022-11-01T14:46:46.688Z,100688.33
2022-11-01T14:47:47.464Z,100690.13
2022-11-01T14:48:55.205Z,100687.57
2022-11-01T14:50:00.843Z,100691.09
2022-11-01T14:51:11.003Z,100690.46
2022-11-01T14:52:18.506Z,100686.29
2022-11-01T14:53:36.911Z,100685.06
2022-11-01T14:54:45.112Z,100683.27
2022-11-01T14:55:48.733Z,100688.68
2022-11-01T14:56:52.956Z,100682.73
2022-11-01T14:58:08.902Z,100683.59
2022-11-01T14:59:14.080Z,100675.99
2022-11-01T15:00:32.239Z,100682.55
2022-11-01T15:01:36.416Z,100671.25
2022-11-01T15:02:40.516Z,100671.34
2022-11-01T15:03:59.536Z,100679.52
2022-11-01T15:05:03.235Z,100676.10
2022-11-01T15:06:08.632Z,100676.20
2022-11-01T15:07:26.213Z,100679.81
2022-11-01T15:08:38.938Z,100685.22
2022-11-01T15:09:42.326Z,100680.00
2022-11-01T15:10:46.680Z,100674.91
2022-11-01T15:11:51.229Z,100674.91
2022-11-01T15:12:59.480Z,100674.91
2022-11-01T15:14:05.326Z,100676.61
2022-11-01T15:15:11.449Z,100668.83
2022-11-01T15:16:19.141Z,100672.53
2022-11-01T15:17:23.481Z,100669.97
2022-11-01T15:18:27.289Z,100665.69
2022-11-01T15:19:31.311Z,100665.03
2022-11-01T15:20:36.384Z,100663.45
2022-11-01T15:21:46.672Z,100659.84
2022-11-01T15:22:48.616Z,100665.16
2022-11-01T15:23:53.388Z,100666.96
2022-11-01T15:24:59.402Z,100665.16
2022-11-01T15:26:03.636Z,100658.86
2022-11-01T15:27:09.232Z,100666.11
2022-11-01T15:28:14.183Z,100664.48
2022-11-01T15:29:19.478Z,100667.24
2022-11-01T15:30:24.761Z,100667.16
2022-11-01T15:31:28.772Z,100665.34
2022-11-01T15:32:34.517Z,100667.05
2022-11-01T15:33:37.062Z,100654.71
2022-11-01T15:34:40.413Z,100664.68
2022-11-01T15:35:44.164Z,100655.84
2022-11-01T15:36:46.623Z,100656.03
2022-11-01T15:37:51.249Z,100664.96
2022-11-01T15:38:55.498Z,100657.30
2022-11-01T15:41:21.729Z,100662.81
2022-11-01T15:42:29.200Z,100658.72
2022-11-01T15:43:35.799Z,100656.06
2022-11-01T15:44:46.445Z,100653.50
2022-11-01T15:45:52.944Z,100658.91
2022-11-01T15:46:58.268Z,100659.00
2022-11-01T15:48:07.944Z,100655.80
2022-11-01T15:49:16.242Z,100663.86
2022-11-01T15:50:23.303Z,100655.03
2022-11-01T15:51:31.508Z,100657.98
2022-11-01T15:52:36.153Z,100666.04
2022-11-01T15:53:43.644Z,100670.50
2022-11-01T15:54:55.402Z,100658.38
2022-11-01T15:56:02.282Z,100656.85
2022-11-01T15:57:08.571Z,100649.92
2022-11-01T15:58:13.560Z,100650.95
2022-11-01T15:59:18.298Z,100661.58
2022-11-01T16:00:26.317Z,100651.99
2022-11-01T16:01:29.790Z,100664.64
2022-11-01T16:02:36.293Z,100660.45
2022-11-01T16:03:43.096Z,100654.47
2022-11-01T16:04:47.424Z,100658.55
2022-11-01T16:30:55.921Z,100638.03
2022-11-01T16:32:10.266Z,100639.65
2022-11-01T16:33:21.282Z,100633.48
2022-11-01T16:34:24.816Z,100637.20
2022-11-01T16:35:32.298Z,100631.13
2022-11-01T16:36:37.781Z,100622.31
2022-11-01T16:37:43.381Z,100624.96
2022-11-01T16:38:47.930Z,100623.34
2022-11-01T21:19:06.121Z,100462.27
2022-11-01T21:20:12.983Z,100457.50
2022-11-01T21:21:21.242Z,100454.77
2022-11-01T21:22:24.751Z,100463.12
2022-11-01T21:23:31.686Z,100461.00
2022-11-01T21:24:36.344Z,100471.34
2022-11-01T21:25:39.338Z,100472.27
2022-11-01T21:26:42.620Z,100464.91
2022-11-01T21:27:48.623Z,100463.48
2022-11-01T21:28:55.306Z,100461.41
2022-11-01T21:31:29.871Z,100450.66
2022-11-01T21:32:42.576Z,100444.25
2022-11-01T21:33:46.786Z,100436.92
2022-11-01T21:34:50.519Z,100429.84
2022-11-01T21:35:53.796Z,100428.82
2022-11-01T21:36:59.324Z,100419.41
2022-11-01T21:38:03.114Z,100432.97
2022-11-01T21:39:25.828Z,100429.30
2022-11-01T21:40:32.480Z,100427.17
2022-11-01T21:41:40.461Z,100428.20
2022-11-01T21:42:45.758Z,100419.73
2022-11-01T21:43:49.371Z,100427.19
2022-11-01T21:44:54.319Z,100412.33
2022-11-01T21:46:00.896Z,100419.16
2022-11-01T21:47:09.074Z,100417.94
2022-11-01T21:48:16.118Z,100417.69
2022-11-01T21:49:28.199Z,100427.74
2022-11-01T21:50:32.400Z,100433.23
2022-11-01T21:51:35.837Z,100428.42
2022-11-01T21:52:38.713Z,100423.13
2022-11-01T21:53:43.365Z,100426.63
2022-11-01T21:54:47.500Z,100421.67
2022-11-01T21:55:52.256Z,100426.66
2022-11-01T21:56:55.960Z,100427.51
2022-11-01T21:57:59.790Z,100433.14
2022-11-01T21:59:02.966Z,100434.19
2022-11-01T22:00:06.825Z,100430.61
2022-11-01T22:01:09.567Z,100435.98
2022-11-01T22:02:13.937Z,100441.53
2022-11-01T22:03:17.405Z,100440.23
2022-11-01T22:04:23.392Z,100443.31
2022-11-01T22:05:26.414Z,100440.33
2022-11-01T22:06:29.710Z,100432.55
2022-11-01T22:07:35.029Z,100427.67
2022-11-01T22:08:42.719Z,100423.40
2022-11-01T22:09:47.869Z,100420.27
2022-11-01T22:10:52.906Z,100405.73
2022-11-01T22:11:56.424Z,100406.87
2022-11-01T22:13:02.941Z,100392.87
2022-11-01T22:14:05.003Z,100391.32
2022-11-01T22:15:09.284Z,100385.09
2022-11-01T22:16:14.834Z,100383.47
2022-11-01T22:17:18.220Z,100392.09
2022-11-01T22:18:24.956Z,100399.27
2022-11-01T22:19:25.969Z,100390.22
2022-11-01T22:20:30.107Z,100388.14
2022-11-01T22:21:33.760Z,100392.70
2022-11-01T22:22:36.890Z,100391.48
2022-11-01T22:23:41.064Z,100387.58
2022-11-01T22:24:44.633Z,100387.50
2022-11-01T22:25:48.137Z,100396.37
2022-11-01T22:26:54.061Z,100399.87
2022-11-01T22:27:56.731Z,100395.59
2022-11-01T22:28:58.966Z,100395.07
2022-11-01T22:30:03.322Z,100390.39
2022-11-01T22:31:06.409Z,100390.72
2022-11-01T22:32:09.705Z,100386.64
2022-11-01T22:33:14.044Z,100384.20
2022-11-01T22:34:17.784Z,100382.58
2022-11-01T22:35:21.248Z,100381.89
2022-11-01T22:36:28.814Z,100383.30
2022-11-01T22:38:48.902Z,100377.37
2022-11-01T22:39:53.219Z,100379.60
2022-11-01T22:40:59.136Z,100378.42
2022-11-01T22:42:02.561Z,100365.27
2022-11-01T22:43:08.989Z,100371.66
2022-11-01T22:44:15.102Z,100362.18
2022-11-01T22:45:19.552Z,100355.70
2022-11-01T22:46:26.603Z,100358.27
2022-11-01T22:47:32.302Z,100356.56
2022-11-01T22:48:37.891Z,100356.39
2022-11-01T22:49:42.429Z,100351.77
2022-11-01T22:50:45.308Z,100346.47
2022-11-01T22:51:52.004Z,100349.89
2022-11-01T22:52:56.190Z,100340.86
2022-11-01T22:53:59.388Z,100345.54
2022-11-01T22:55:06.863Z,100340.61
2022-11-01T22:56:11.793Z,100337.44
2022-11-01T22:57:20.855Z,100335.81
2022-11-01T22:58:29.071Z,100338.61
2022-11-01T22:59:33.449Z,100335.64
2022-11-01T23:00:38.789Z,100327.88
2022-11-01T23:01:43.549Z,100321.81
2022-11-01T23:02:49.246Z,100328.15
2022-11-01T23:03:56.304Z,100325.83
2022-11-01T23:05:07.220Z,100321.39
2022-11-01T23:06:11.600Z,100315.66
2022-11-01T23:07:26.983Z,100307.57
2022-11-01T23:08:34.396Z,100310.98
2022-11-01T23:09:37.848Z,100305.01
2022-11-01T23:10:43.979Z,100307.66
2022-11-01T23:12:10.763Z,100306.63
2022-11-01T23:13:36.738Z,100302.28
2022-11-01T23:14:43.789Z,100307.73
2022-11-01T23:15:47.075Z,100307.66
2022-11-01T23:16:50.371Z,100310.05
2022-11-01T23:17:54.537Z,100308.78
2022-11-01T23:18:59.904Z,100308.86
2022-11-01T23:20:05.273Z,100310.45
2022-11-01T23:21:09.298Z,100313.10
2022-11-01T23:22:17.297Z,100307.64
2022-11-01T23:23:21.285Z,100308.36
2022-11-01T23:24:25.473Z,100302.19
2022-11-01T23:25:31.677Z,100305.72
2022-11-01T23:26:36.852Z,100306.70
2022-11-01T23:27:42.446Z,100303.97
2022-11-01T23:28:46.070Z,100302.34
2022-11-01T23:29:50.830Z,100308.28
2022-11-01T23:30:53.814Z,100313.48
2022-11-01T23:31:57.420Z,100310.67
2022-11-01T23:33:05.275Z,100301.11
2022-11-01T23:34:10.801Z,100300.34
2022-11-01T23:35:15.963Z,100303.07
2022-11-01T23:36:26.065Z,100301.33
2022-11-01T23:37:28.726Z,100296.89
2022-11-01T23:38:34.021Z,100295.35
2022-11-01T23:39:36.370Z,100297.91
2022-11-01T23:40:39.588Z,100301.50
2022-11-01T23:41:45.160Z,100299.79
2022-11-01T23:42:49.520Z,100297.69
2022-11-01T23:43:55.193Z,100299.41
2022-11-01T23:44:59.328Z,100295.90
2022-11-01T23:46:03.039Z,100289.22
2022-11-01T23:47:14.795Z,100290.92
2022-11-01T23:48:20.180Z,100290.66
2022-11-01T23:49:26.813Z,100281.61
2022-11-01T23:50:32.084Z,100281.79
2022-11-01T23:51:35.279Z,100282.55
2022-11-01T23:52:49.434Z,100276.32
2022-11-01T23:53:54.403Z,100271.88
2022-11-01T23:54:57.698Z,100273.67
2022-11-01T23:56:02.398Z,100270.52
2022-11-01T23:57:07.121Z,100265.99
2022-11-01T23:58:12.696Z,100267.53
2022-11-01T23:59:16.638Z,100272.65
